Time;durP1;ratioP1;P1;durP2;ratioP2;P2;SDS_P1;SDS_P2;PMS_P1;PMS_P2;Temp;Humidity;BMP_temperature;BMP_pressure;BME280_temperature;BME280_humidity;BME280_pressure;Samples;Min_cycle;Max_cycle;Signal;HPM_P1;HPM_P2
2022/07/18 00:00:59;;;;;;;;;;;;;;;;;;4990152;28;20394;-60
2022/07/18 00:03:25;;;;;;;;;;;;;;;;;;5008087;28;19964;-60
2022/07/18 00:05:51;;;;;;;;;;;;;;;;;;5008281;28;19922;-60
2022/07/18 00:08:17;;;;;;;;;;;;;;;;;;5008256;28;19965;-60
2022/07/18 00:10:43;;;;;;;;;;;;;;;;;;4994315;28;20299;-61
2022/07/18 00:13:10;;;;;;;;;;;;;;;;;;5008717;28;19928;-60
2022/07/18 00:15:35;;;;;;;;;;;;;;;;;;5007018;28;20052;-60
2022/07/18 00:18:01;;;;;;;;;;;;;;;;;;5008257;28;20451;-60
2022/07/18 00:20:28;;;;;;;;;;;;;;;;;;5007527;28;19960;-60
2022/07/18 00:22:54;;;;;;;;;;;;;;;;;;5007674;28;19925;-60
2022/07/18 00:25:20;;;;;;;;;;;;;;;;;;5007930;28;19967;-60
2022/07/18 00:27:46;;;;;;;;;;;;;;;;;;5008058;28;20488;-60
2022/07/18 00:30:12;;;;;;;;;;;;;;;;;;5007151;28;19925;-62
2022/07/18 00:32:38;;;;;;;;;;;;;;;;;;5008399;28;19959;-60
2022/07/18 00:35:04;;;;;;;;;;;;;;;;;;5007528;28;19978;-60
2022/07/18 00:37:30;;;;;;;;;;;;;;;;;;5007477;28;20372;-60
2022/07/18 00:39:56;;;;;;;;;;;;;;;;;;4980881;28;19925;-60
2022/07/18 00:42:22;;;;;;;;;;;;;;;;;;4982954;28;19921;-60
2022/07/18 00:44:48;;;;;;;;;;;;;;;;;;5006967;28;20011;-61
2022/07/18 00:47:14;;;;;;;;;;;;;;;;;;5007550;28;20315;-60
2022/07/18 00:49:40;;;;;;;;;;;;;;;;;;5007836;28;19967;-60
2022/07/18 00:52:06;;;;;;;;;;;;;;;;;;5007875;28;19987;-60
2022/07/18 00:54:32;;;;;;;;;;;;;;;;;;5007093;28;20648;-60
2022/07/18 00:56:58;;;;;;;;;;;;;;;;;;5007892;28;19928;-60
2022/07/18 01:01:42;;;;;;;;;;;;;;;;;;5007178;28;20299;-60
2022/07/18 01:02:10;;;;;;;;;;;;;;;;;;5007673;28;20299;-60
2022/07/18 01:04:36;;;;;;;;;;;;;;;;;;5007774;28;19922;-60
2022/07/18 01:07:02;;;;;;;;;;;;;;;;;;5007467;28;20373;-60
2022/07/18 01:09:28;;;;;;;;;;;;;;;;;;4982083;28;19922;-60
2022/07/18 01:11:54;;;;;;;;;;;;;;;;;;5001155;28;20303;-60
2022/07/18 01:14:20;;;;;;;;;;;;;;;;;;5006516;28;19957;-60
2022/07/18 01:16:46;;;;;;;;;;;;;;;;;;5006520;28;20418;-60
2022/07/18 01:19:12;;;;;;;;;;;;;;;;;;5006960;28;19925;-61
2022/07/18 01:21:39;;;;;;;;;;;;;;;;;;5007395;28;20005;-60
2022/07/18 01:24:05;;;;;;;;;;;;;;;;;;5006740;28;19921;-60
2022/07/18 01:26:31;;;;;;;;;;;;;;;;;;5006699;28;20691;-60
2022/07/18 01:28:57;;;;;;;;;;;;;;;;;;5006512;28;19921;-60
2022/07/18 01:31:23;;;;;;;;;;;;;;;;;;5005748;28;19922;-60
2022/07/18 01:33:49;;;;;;;;;;;;;;;;;;5006956;28;19968;-60
2022/07/18 01:36:15;;;;;;;;;;;;;;;;;;5006655;28;19928;-60
2022/07/18 01:38:41;;;;;;;;;;;;;;;;;;5007359;28;20351;-61
2022/07/18 01:41:07;;;;;;;;;;;;;;;;;;5007088;28;19929;-60
2022/07/18 01:43:34;;;;;;;;;;;;;;;;;;5006258;28;19929;-60
2022/07/18 01:46:01;;;;;;;;;;;;;;;;;;5005836;28;19921;-60
2022/07/18 01:48:27;;;;;;;;;;;;;;;;;;5006178;28;19922;-60
2022/07/18 01:50:53;;;;;;;;;;;;;;;;;;5006461;28;19921;-60
2022/07/18 01:53:19;;;;;;;;;;;;;;;;;;5006115;28;20383;-60
2022/07/18 01:55:45;;;;;;;;;;;;;;;;;;5006642;28;19928;-61
2022/07/18 01:58:11;;;;;;;;;;;;;;;;;;4988328;28;19944;-61
2022/07/18 02:00:37;;;;;;;;;;;;;;;;;;5006305;28;19921;-60
2022/07/18 02:03:03;;;;;;;;;;;;;;;;;;4988516;28;20335;-60
2022/07/18 02:05:29;;;;;;;;;;;;;;;;;;5006283;28;19973;-60
2022/07/18 02:07:55;;;;;;;;;;;;;;;;;;5006185;28;20319;-60
2022/07/18 02:10:21;;;;;;;;;;;;;;;;;;4991894;28;19922;-60
2022/07/18 02:12:47;;;;;;;;;;;;;;;;;;5005833;28;19921;-60
2022/07/18 02:15:13;;;;;;;;;;;;;;;;;;5005342;28;19944;-61
2022/07/18 02:17:39;;;;;;;;;;;;;;;;;;5006300;28;19997;-60
2022/07/18 02:20:05;;;;;;;;;;;;;;;;;;5005929;28;19925;-60
2022/07/18 02:22:31;;;;;;;;;;;;;;;;;;5005473;28;19971;-60
2022/07/18 02:24:57;;;;;;;;;;;;;;;;;;5005992;28;19921;-60
2022/07/18 02:27:23;;;;;;;;;;;;;;;;;;5003476;28;20570;-60
2022/07/18 02:29:49;;;;;;;;;;;;;;;;;;4985696;28;20367;-60
2022/07/18 02:32:15;;;;;;;;;;;;;;;;;;4986104;28;19922;-60
2022/07/18 02:34:41;;;;;;;;;;;;;;;;;;4986054;28;19964;-61
2022/07/18 02:37:07;;;;;;;;;;;;;;;;;;4986276;28;20015;-60
2022/07/18 02:39:33;;;;;;;;;;;;;;;;;;4986018;28;19975;-60
2022/07/18 02:41:59;;;;;;;;;;;;;;;;;;4985778;28;19918;-60
2022/07/18 02:44:25;;;;;;;;;;;;;;;;;;4985287;28;19929;-61
2022/07/18 02:46:51;;;;;;;;;;;;;;;;;;4985893;28;19922;-60
2022/07/18 02:49:31;;;;;;;;;;;;;;;;;;4994958;28;20004;-61
2022/07/18 02:51:57;;;;;;;;;;;;;;;;;;5001077;28;19932;-60
2022/07/18 02:54:23;;;;;;;;;;;;;;;;;;4985440;28;19922;-60
2022/07/18 02:56:49;;;;;;;;;;;;;;;;;;4985700;28;19922;-60
2022/07/18 02:59:15;;;;;;;;;;;;;;;;;;4997291;28;19921;-60
2022/07/18 03:01:41;;;;;;;;;;;;;;;;;;5004275;28;19964;-60
2022/07/18 03:04:07;;;;;;;;;;;;;;;;;;5005732;28;20390;-60
2022/07/18 03:06:33;;;;;;;;;;;;;;;;;;4997996;28;20007;-60
2022/07/18 03:08:59;;;;;;;;;;;;;;;;;;5002225;28;20016;-60
2022/07/18 03:11:25;;;;;;;;;;;;;;;;;;4989874;28;20450;-62
2022/07/18 03:13:51;;;;;;;;;;;;;;;;;;4996234;28;20386;-60
2022/07/18 03:16:17;;;;;;;;;;;;;;;;;;4991316;28;19922;-60
2022/07/18 03:18:43;;;;;;;;;;;;;;;;;;4987499;28;20011;-60
2022/07/18 03:21:09;;;;;;;;;;;;;;;;;;4994578;28;19922;-60
2022/07/18 03:23:35;;;;;;;;;;;;;;;;;;4984567;28;19926;-59
2022/07/18 03:26:01;;;;;;;;;;;;;;;;;;4992825;28;20385;-59
2022/07/18 03:28:27;;;;;;;;;;;;;;;;;;4987346;28;19917;-60
2022/07/18 03:30:53;;;;;;;;;;;;;;;;;;4986452;28;19921;-60
2022/07/18 03:33:19;;;;;;;;;;;;;;;;;;4987037;28;20044;-60
2022/07/18 03:35:45;;;;;;;;;;;;;;;;;;5004886;28;19917;-60
2022/07/18 03:38:11;;;;;;;;;;;;;;;;;;5004711;28;19921;-60
2022/07/18 03:40:37;;;;;;;;;;;;;;;;;;5005284;28;19925;-59
2022/07/18 03:43:03;;;;;;;;;;;;;;;;;;4987455;28;20009;-60
2022/07/18 03:45:29;;;;;;;;;;;;;;;;;;5004284;28;19922;-60
2022/07/18 03:47:55;;;;;;;;;;;;;;;;;;5004806;28;19918;-60
2022/07/18 03:50:21;;;;;;;;;;;;;;;;;;4986594;28;20483;-60
2022/07/18 03:52:47;;;;;;;;;;;;;;;;;;5004327;28;20013;-60
2022/07/18 03:55:14;;;;;;;;;;;;;;;;;;4986850;28;19925;-59
2022/07/18 03:57:40;;;;;;;;;;;;;;;;;;4996739;28;19929;-60
2022/07/18 04:00:08;;;;;;;;;;;;;;;;;;4984707;28;19918;-60
2022/07/18 04:02:34;;;;;;;;;;;;;;;;;;4997848;28;20011;-59
2022/07/18 04:05:00;;;;;;;;;;;;;;;;;;5004681;28;20413;-60
2022/07/18 04:07:26;;;;;;;;;;;;;;;;;;5004359;28;19928;-60
2022/07/18 04:09:52;;;;;;;;;;;;;;;;;;5004202;28;20385;-59
2022/07/18 04:12:18;;;;;;;;;;;;;;;;;;5006425;28;19928;-60
2022/07/18 04:14:44;;;;;;;;;;;;;;;;;;5007256;28;19921;-60
2022/07/18 04:17:10;;;;;;;;;;;;;;;;;;5008369;28;19921;-60
2022/07/18 04:19:36;;;;;;;;;;;;;;;;;;4990257;28;19921;-60
2022/07/18 04:22:02;;;;;;;;;;;;;;;;;;5007308;28;20012;-60
2022/07/18 04:24:28;;;;;;;;;;;;;;;;;;5008047;28;20386;-59
2022/07/18 04:26:54;;;;;;;;;;;;;;;;;;5007828;28;20017;-60
2022/07/18 04:29:20;;;;;;;;;;;;;;;;;;4989526;28;20343;-59
2022/07/18 04:31:46;;;;;;;;;;;;;;;;;;5007563;28;19921;-60
2022/07/18 04:34:12;;;;;;;;;;;;;;;;;;5007814;28;19973;-61
2022/07/18 04:36:38;;;;;;;;;;;;;;;;;;5007796;28;19976;-60
2022/07/18 04:39:04;;;;;;;;;;;;;;;;;;5007467;28;19968;-60
2022/07/18 04:41:30;;;;;;;;;;;;;;;;;;5007475;28;19921;-60
2022/07/18 04:43:56;;;;;;;;;;;;;;;;;;5007523;28;19921;-60
2022/07/18 04:46:22;;;;;;;;;;;;;;;;;;5006255;28;19921;-60
2022/07/18 04:48:48;;;;;;;;;;;;;;;;;;5007638;28;19921;-60
2022/07/18 04:51:14;;;;;;;;;;;;;;;;;;5006761;28;19928;-60
2022/07/18 04:53:40;;;;;;;;;;;;;;;;;;5007875;28;19940;-60
2022/07/18 04:56:06;;;;;;;;;;;;;;;;;;5005702;28;20322;-59
2022/07/18 04:58:32;;;;;;;;;;;;;;;;;;4995466;28;20473;-59
2022/07/18 05:00:58;;;;;;;;;;;;;;;;;;5006356;28;20007;-60
2022/07/18 05:03:24;;;;;;;;;;;;;;;;;;5007201;28;19957;-60
2022/07/18 05:05:50;;;;;;;;;;;;;;;;;;5006760;28;20453;-60
2022/07/18 05:08:16;;;;;;;;;;;;;;;;;;5007048;28;20047;-60
2022/07/18 05:10:42;;;;;;;;;;;;;;;;;;5006996;28;19922;-60
2022/07/18 05:13:08;;;;;;;;;;;;;;;;;;5007594;28;19921;-60
2022/07/18 05:15:34;;;;;;;;;;;;;;;;;;5005968;28;20323;-60
2022/07/18 05:18:00;;;;;;;;;;;;;;;;;;5004120;28;19925;-60
2022/07/18 05:20:26;;;;;;;;;;;;;;;;;;5003817;28;20008;-59
2022/07/18 05:22:52;;;;;;;;;;;;;;;;;;5003997;28;19929;-59
2022/07/18 05:25:18;;;;;;;;;;;;;;;;;;5005305;28;20008;-60
2022/07/18 05:27:44;;;;;;;;;;;;;;;;;;4996405;28;20000;-59
2022/07/18 05:30:10;;;;;;;;;;;;;;;;;;4997822;28;19921;-59
2022/07/18 05:32:36;;;;;;;;;;;;;;;;;;4990843;28;19932;-60
2022/07/18 05:35:02;;;;;;;;;;;;;;;;;;4980444;28;20508;-60
2022/07/18 05:37:28;;;;;;;;;;;;;;;;;;5000746;28;20008;-60
2022/07/18 05:39:54;;;;;;;;;;;;;;;;;;4995393;28;19944;-61
2022/07/18 05:42:20;;;;;;;;;;;;;;;;;;4997435;28;19922;-61
2022/07/18 05:44:46;;;;;;;;;;;;;;;;;;5003368;28;20368;-60
2022/07/18 05:47:13;;;;;;;;;;;;;;;;;;5003042;28;19943;-61
2022/07/18 05:49:39;;;;;;;;;;;;;;;;;;4986573;28;20061;-60
2022/07/18 05:52:05;;;;;;;;;;;;;;;;;;5002847;28;20007;-60
2022/07/18 05:54:31;;;;;;;;;;;;;;;;;;4992190;28;21026;-60
2022/07/18 05:56:57;;;;;;;;;;;;;;;;;;4990417;28;20000;-60
2022/07/18 05:59:23;;;;;;;;;;;;;;;;;;4987919;28;20405;-60
2022/07/18 06:01:49;;;;;;;;;;;;;;;;;;4994343;28;20290;-60
2022/07/18 06:04:15;;;;;;;;;;;;;;;;;;5001721;28;20363;-60
2022/07/18 06:06:43;;;;;;;;;;;;;;;;;;5000541;28;19926;-60
2022/07/18 06:09:09;;;;;;;;;;;;;;;;;;5005181;28;19917;-60
2022/07/18 06:11:35;;;;;;;;;;;;;;;;;;4995489;28;19921;-60
2022/07/18 06:14:04;;;;;;;;;;;;;;;;;;4997937;28;19959;-61
2022/07/18 06:16:30;;;;;;;;;;;;;;;;;;4992870;28;19921;-60
2022/07/18 06:18:56;;;;;;;;;;;;;;;;;;4989459;28;19922;-60
2022/07/18 06:21:22;;;;;;;;;;;;;;;;;;4992000;28;19921;-60
2022/07/18 06:23:48;;;;;;;;;;;;;;;;;;4990858;28;19947;-60
2022/07/18 06:26:14;;;;;;;;;;;;;;;;;;4992336;28;20419;-61
2022/07/18 06:28:40;;;;;;;;;;;;;;;;;;4996079;28;19945;-60
2022/07/18 06:31:06;;;;;;;;;;;;;;;;;;4993812;28;20016;-60
2022/07/18 06:33:32;;;;;;;;;;;;;;;;;;4995230;28;20008;-60
2022/07/18 06:35:58;;;;;;;;;;;;;;;;;;4995062;28;19925;-60
2022/07/18 06:38:24;;;;;;;;;;;;;;;;;;4992133;28;20407;-60
2022/07/18 06:40:49;;;;;;;;;;;;;;;;;;4996301;28;19925;-60
2022/07/18 06:43:19;;;;;;;;;;;;;;;;;;4990307;28;19922;-60
2022/07/18 06:45:45;;;;;;;;;;;;;;;;;;4994537;28;19922;-61
2022/07/18 06:48:11;;;;;;;;;;;;;;;;;;4993200;28;20032;-60
2022/07/18 06:50:37;;;;;;;;;;;;;;;;;;4994359;28;20391;-60
2022/07/18 06:53:03;;;;;;;;;;;;;;;;;;4994772;28;19977;-60
2022/07/18 06:55:29;;;;;;;;;;;;;;;;;;4994412;28;20625;-60
2022/07/18 06:57:55;;;;;;;;;;;;;;;;;;4991124;28;19935;-60
2022/07/18 07:00:21;;;;;;;;;;;;;;;;;;4997491;28;20458;-60
2022/07/18 07:02:47;;;;;;;;;;;;;;;;;;4997383;28;19945;-60
2022/07/18 07:05:13;;;;;;;;;;;;;;;;;;5000736;28;19926;-61
2022/07/18 07:07:39;;;;;;;;;;;;;;;;;;4986224;28;19922;-60
2022/07/18 07:10:05;;;;;;;;;;;;;;;;;;4996938;28;20288;-60
2022/07/18 07:12:30;;;;;;;;;;;;;;;;;;4993278;28;19979;-60
2022/07/18 07:14:56;;;;;;;;;;;;;;;;;;4997205;28;20346;-60
2022/07/18 07:17:22;;;;;;;;;;;;;;;;;;4991922;28;20411;-60
2022/07/18 07:19:48;;;;;;;;;;;;;;;;;;4991613;28;19922;-60
2022/07/18 07:22:15;;;;;;;;;;;;;;;;;;4985670;28;19913;-61
2022/07/18 07:24:40;;;;;;;;;;;;;;;;;;4993318;28;19922;-62
2022/07/18 07:27:07;;;;;;;;;;;;;;;;;;4977032;28;20391;-60
2022/07/18 07:29:33;;;;;;;;;;;;;;;;;;4995645;28;19929;-60
2022/07/18 07:31:59;;;;;;;;;;;;;;;;;;4991409;28;19925;-60
2022/07/18 07:34:25;;;;;;;;;;;;;;;;;;4991506;28;19928;-60
2022/07/18 07:36:51;;;;;;;;;;;;;;;;;;4991569;28;19929;-60
2022/07/18 07:39:17;;;;;;;;;;;;;;;;;;4978363;28;19921;-61
2022/07/18 07:41:43;;;;;;;;;;;;;;;;;;4994269;28;20329;-61
2022/07/18 07:44:09;;;;;;;;;;;;;;;;;;4989714;28;19921;-60
2022/07/18 07:46:35;;;;;;;;;;;;;;;;;;4997472;28;20427;-61
2022/07/18 07:49:01;;;;;;;;;;;;;;;;;;4983201;28;19933;-60
2022/07/18 07:51:27;;;;;;;;;;;;;;;;;;4997841;28;19976;-60
2022/07/18 07:53:53;;;;;;;;;;;;;;;;;;5003054;28;19948;-61
2022/07/18 07:56:19;;;;;;;;;;;;;;;;;;5002624;28;19921;-61
2022/07/18 07:58:45;;;;;;;;;;;;;;;;;;4994692;28;19981;-61
2022/07/18 08:01:11;;;;;;;;;;;;;;;;;;4995709;28;19934;-62
2022/07/18 08:03:37;;;;;;;;;;;;;;;;;;5007262;28;19953;-61
2022/07/18 08:06:04;;;;;;;;;;;;;;;;;;5002221;28;19925;-61
2022/07/18 08:08:30;;;;;;;;;;;;;;;;;;5006510;28;19928;-61
2022/07/18 08:10:56;;;;;;;;;;;;;;;;;;5003087;28;19921;-61
2022/07/18 08:13:22;;;;;;;;;;;;;;;;;;4998736;28;19953;-61
2022/07/18 08:15:48;;;;;;;;;;;;;;;;;;4997601;28;19929;-61
2022/07/18 08:18:14;;;;;;;;;;;;;;;;;;5002014;28;19999;-61
2022/07/18 08:20:40;;;;;;;;;;;;;;;;;;5007294;28;19921;-61
2022/07/18 08:23:06;;;;;;;;;;;;;;;;;;5005351;28;19929;-61
2022/07/18 08:25:32;;;;;;;;;;;;;;;;;;5006190;28;19925;-61
2022/07/18 08:27:58;;;;;;;;;;;;;;;;;;4998958;28;19921;-61
2022/07/18 08:30:24;;;;;;;;;;;;;;;;;;5005996;28;19923;-61
2022/07/18 08:32:50;;;;;;;;;;;;;;;;;;5004028;28;19925;-61
2022/07/18 08:35:16;;;;;;;;;;;;;;;;;;5006021;28;19945;-64
2022/07/18 08:37:42;;;;;;;;;;;;;;;;;;5006921;28;19917;-63
2022/07/18 08:40:08;;;;;;;;;;;;;;;;;;5002585;28;19923;-62
2022/07/18 08:42:34;;;;;;;;;;;;;;;;;;4998053;28;19944;-62
2022/07/18 08:45:00;;;;;;;;;;;;;;;;;;4999557;28;19975;-62
2022/07/18 08:47:26;;;;;;;;;;;;;;;;;;4993499;28;19922;-62
2022/07/18 08:49:52;;;;;;;;;;;;;;;;;;4993410;28;20389;-62
2022/07/18 08:52:18;;;;;;;;;;;;;;;;;;5003182;28;19929;-62
2022/07/18 08:54:44;;;;;;;;;;;;;;;;;;5003139;28;19913;-62
2022/07/18 08:57:10;;;;;;;;;;;;;;;;;;4976332;28;20306;-62
2022/07/18 08:59:36;;;;;;;;;;;;;;;;;;4996529;28;19930;-62
2022/07/18 09:02:02;;;;;;;;;;;;;;;;;;4998242;28;20025;-62
2022/07/18 09:04:28;;;;;;;;;;;;;;;;;;4981061;28;19922;-62
2022/07/18 09:06:54;;;;;;;;;;;;;;;;;;4991994;28;19922;-62
2022/07/18 09:09:20;;;;;;;;;;;;;;;;;;4996663;28;19921;-62
2022/07/18 09:11:46;;;;;;;;;;;;;;;;;;4997027;28;20287;-62
2022/07/18 09:14:12;;;;;;;;;;;;;;;;;;4997135;28;19930;-63
2022/07/18 09:16:38;;;;;;;;;;;;;;;;;;4999001;28;20068;-62
2022/07/18 09:19:04;;;;;;;;;;;;;;;;;;4979925;28;20397;-62
2022/07/18 09:21:30;;;;;;;;;;;;;;;;;;4989966;28;19933;-62
2022/07/18 09:23:56;;;;;;;;;;;;;;;;;;5000668;28;19921;-62
2022/07/18 09:26:22;;;;;;;;;;;;;;;;;;5000007;28;20013;-62
2022/07/18 09:28:48;;;;;;;;;;;;;;;;;;4993141;28;20414;-62
2022/07/18 09:31:14;;;;;;;;;;;;;;;;;;4992019;28;19976;-62
2022/07/18 09:33:40;;;;;;;;;;;;;;;;;;5000591;28;19995;-62
2022/07/18 09:36:06;;;;;;;;;;;;;;;;;;5000597;28;20461;-62
2022/07/18 09:38:32;;;;;;;;;;;;;;;;;;4993648;28;20029;-62
2022/07/18 09:40:58;;;;;;;;;;;;;;;;;;4991662;28;20422;-62
2022/07/18 09:43:24;;;;;;;;;;;;;;;;;;4994122;28;19922;-62
2022/07/18 09:45:50;;;;;;;;;;;;;;;;;;5001345;28;20229;-62
2022/07/18 09:48:16;;;;;;;;;;;;;;;;;;4994644;28;20000;-62
2022/07/18 09:50:42;;;;;;;;;;;;;;;;;;4993457;28;19921;-62
2022/07/18 09:53:08;;;;;;;;;;;;;;;;;;4998987;28;19932;-62
2022/07/18 09:55:34;;;;;;;;;;;;;;;;;;4994393;28;19917;-62
2022/07/18 09:58:01;;;;;;;;;;;;;;;;;;4993574;28;20008;-62
2022/07/18 10:00:27;;;;;;;;;;;;;;;;;;4997034;28;19921;-63
2022/07/18 10:02:53;;;;;;;;;;;;;;;;;;5005260;28;19944;-63
2022/07/18 10:05:19;;;;;;;;;;;;;;;;;;5004987;28;19968;-63
2022/07/18 10:07:45;;;;;;;;;;;;;;;;;;5005531;28;19944;-63
2022/07/18 10:10:11;;;;;;;;;;;;;;;;;;5001873;28;19921;-63
2022/07/18 10:12:37;;;;;;;;;;;;;;;;;;4994712;28;19925;-62
2022/07/18 10:15:03;;;;;;;;;;;;;;;;;;4992875;28;20525;-62
2022/07/18 10:17:29;;;;;;;;;;;;;;;;;;4992797;28;19922;-62
2022/07/18 10:19:55;;;;;;;;;;;;;;;;;;4991996;28;19922;-62
2022/07/18 10:22:21;;;;;;;;;;;;;;;;;;4991386;28;19918;-63
2022/07/18 10:24:49;;;;;;;;;;;;;;;;;;4973293;28;20307;-63
2022/07/18 10:27:15;;;;;;;;;;;;;;;;;;4977630;28;19926;-63
2022/07/18 10:29:41;;;;;;;;;;;;;;;;;;5000570;28;19977;-65
2022/07/18 10:32:08;;;;;;;;;;;;;;;;;;4994485;28;19921;-65
2022/07/18 10:34:34;;;;;;;;;;;;;;;;;;4990637;28;20450;-65
2022/07/18 10:37:02;;;;;;;;;;;;;;;;;;4993851;28;19937;-65
2022/07/18 10:39:28;;;;;;;;;;;;;;;;;;4989608;28;19921;-65
2022/07/18 10:41:54;;;;;;;;;;;;;;;;;;4987171;28;19929;-65
2022/07/18 10:44:20;;;;;;;;;;;;;;;;;;4990296;28;19928;-65
2022/07/18 10:46:46;;;;;;;;;;;;;;;;;;4997154;28;19929;-60
2022/07/18 10:49:12;;;;;;;;;;;;;;;;;;4998770;28;19965;-61
2022/07/18 10:51:38;;;;;;;;;;;;;;;;;;4998303;28;20024;-61
2022/07/18 10:54:04;;;;;;;;;;;;;;;;;;4990097;28;19984;-61
2022/07/18 10:56:30;;;;;;;;;;;;;;;;;;4990090;28;19925;-61
2022/07/18 10:58:56;;;;;;;;;;;;;;;;;;4993358;28;19922;-61
2022/07/18 11:01:22;;;;;;;;;;;;;;;;;;4996296;28;19999;-61
2022/07/18 11:03:49;;;;;;;;;;;;;;;;;;4995147;28;19926;-61
2022/07/18 11:06:15;;;;;;;;;;;;;;;;;;4994533;28;19921;-61
2022/07/18 11:08:41;;;;;;;;;;;;;;;;;;4996555;28;19922;-61
2022/07/18 11:11:07;;;;;;;;;;;;;;;;;;4987512;28;19921;-61
2022/07/18 11:13:34;;;;;;;;;;;;;;;;;;4987076;28;19948;-61
2022/07/18 11:16:04;;;;;;;;;;;;;;;;;;4999482;28;19917;-61
2022/07/18 11:18:30;;;;;;;;;;;;;;;;;;4986125;28;20036;-61
2022/07/18 11:20:56;;;;;;;;;;;;;;;;;;4995800;28;20056;-64
2022/07/18 11:23:22;;;;;;;;;;;;;;;;;;5004514;28;19921;-61
2022/07/18 11:25:48;;;;;;;;;;;;;;;;;;5003937;28;19926;-61
2022/07/18 11:28:14;;;;;;;;;;;;;;;;;;4987535;28;19922;-61
2022/07/18 11:30:40;;;;;;;;;;;;;;;;;;4993049;28;20397;-61
2022/07/18 11:33:06;;;;;;;;;;;;;;;;;;4992966;28;19929;-61
2022/07/18 11:35:32;;;;;;;;;;;;;;;;;;5004029;28;19932;-61
2022/07/18 11:37:58;;;;;;;;;;;;;;;;;;5005597;28;19921;-61
2022/07/18 11:40:24;;;;;;;;;;;;;;;;;;5005366;28;20394;-62
2022/07/18 11:42:50;;;;;;;;;;;;;;;;;;4987423;28;19922;-60
2022/07/18 11:45:16;;;;;;;;;;;;;;;;;;4991271;28;19929;-60
2022/07/18 11:47:42;;;;;;;;;;;;;;;;;;4992975;28;19922;-61
2022/07/18 11:50:08;;;;;;;;;;;;;;;;;;5006052;28;19928;-61
2022/07/18 11:52:34;;;;;;;;;;;;;;;;;;5005346;28;20569;-61
2022/07/18 11:55:01;;;;;;;;;;;;;;;;;;5005282;28;19921;-60
2022/07/18 11:57:27;;;;;;;;;;;;;;;;;;4992279;28;19926;-61
2022/07/18 11:59:53;;;;;;;;;;;;;;;;;;4999897;28;20215;-61
2022/07/18 12:02:19;;;;;;;;;;;;;;;;;;4997463;28;20364;-62
2022/07/18 12:04:46;;;;;;;;;;;;;;;;;;5001817;28;19975;-61
2022/07/18 12:07:12;;;;;;;;;;;;;;;;;;5000919;28;19921;-61
2022/07/18 12:09:38;;;;;;;;;;;;;;;;;;4997464;28;19925;-61
2022/07/18 12:12:04;;;;;;;;;;;;;;;;;;4994365;28;19932;-61
2022/07/18 12:14:30;;;;;;;;;;;;;;;;;;4993435;28;19994;-61
2022/07/18 12:16:56;;;;;;;;;;;;;;;;;;4998375;28;20383;-61
2022/07/18 12:19:28;;;;;;;;;;;;;;;;;;4994895;28;19922;-61
2022/07/18 12:21:54;;;;;;;;;;;;;;;;;;4974325;28;20425;-60
2022/07/18 12:24:20;;;;;;;;;;;;;;;;;;4995695;28;20430;-61
2022/07/18 12:26:46;;;;;;;;;;;;;;;;;;4996149;28;20502;-61
2022/07/18 12:29:12;;;;;;;;;;;;;;;;;;4996129;28;19921;-61
2022/07/18 12:31:38;;;;;;;;;;;;;;;;;;4990355;28;19922;-61
2022/07/18 12:34:04;;;;;;;;;;;;;;;;;;4993663;28;19922;-61
2022/07/18 12:36:30;;;;;;;;;;;;;;;;;;4976179;28;20357;-61
2022/07/18 12:38:56;;;;;;;;;;;;;;;;;;4993475;28;19968;-61
2022/07/18 12:41:22;;;;;;;;;;;;;;;;;;4994733;28;19918;-61
2022/07/18 12:43:48;;;;;;;;;;;;;;;;;;4992127;28;19979;-61
2022/07/18 12:46:15;;;;;;;;;;;;;;;;;;5003833;28;19948;-61
2022/07/18 12:48:42;;;;;;;;;;;;;;;;;;4994529;28;19925;-61
2022/07/18 12:51:08;;;;;;;;;;;;;;;;;;4990778;28;19929;-61
2022/07/18 12:53:34;;;;;;;;;;;;;;;;;;5000906;28;19944;-61
2022/07/18 12:55:59;;;;;;;;;;;;;;;;;;5003081;28;19975;-61
2022/07/18 12:58:25;;;;;;;;;;;;;;;;;;5002186;28;19925;-61
2022/07/18 13:00:52;;;;;;;;;;;;;;;;;;4997468;28;19929;-62
2022/07/18 13:03:18;;;;;;;;;;;;;;;;;;4996583;28;19926;-60
2022/07/18 13:05:44;;;;;;;;;;;;;;;;;;4997862;28;19930;-60
2022/07/18 13:08:10;;;;;;;;;;;;;;;;;;4995198;28;19921;-61
2022/07/18 13:10:36;;;;;;;;;;;;;;;;;;4994112;28;19925;-61
2022/07/18 13:13:03;;;;;;;;;;;;;;;;;;4991798;28;19929;-61
2022/07/18 13:15:29;;;;;;;;;;;;;;;;;;4991562;28;20355;-61
2022/07/18 13:17:55;;;;;;;;;;;;;;;;;;4991789;28;19926;-61
2022/07/18 13:20:21;;;;;;;;;;;;;;;;;;4986787;28;19983;-61
2022/07/18 13:22:47;;;;;;;;;;;;;;;;;;4993055;28;20622;-60
2022/07/18 13:25:13;;;;;;;;;;;;;;;;;;4991181;28;20381;-60
2022/07/18 13:27:39;;;;;;;;;;;;;;;;;;4988670;28;20016;-59
2022/07/18 13:30:05;;;;;;;;;;;;;;;;;;4986752;28;20702;-59
2022/07/18 13:32:31;;;;;;;;;;;;;;;;;;4993677;28;19925;-60
2022/07/18 13:34:57;;;;;;;;;;;;;;;;;;4989465;28;20434;-60
2022/07/18 13:37:23;;;;;;;;;;;;;;;;;;4995734;28;20016;-60
2022/07/18 13:39:49;;;;;;;;;;;;;;;;;;4988831;28;19922;-60
2022/07/18 13:42:15;;;;;;;;;;;;;;;;;;4995027;28;20575;-60
2022/07/18 13:44:41;;;;;;;;;;;;;;;;;;4986896;28;19976;-60
2022/07/18 13:47:07;;;;;;;;;;;;;;;;;;4992101;28;19921;-60
2022/07/18 13:49:33;;;;;;;;;;;;;;;;;;4991694;28;19917;-60
2022/07/18 13:51:59;;;;;;;;;;;;;;;;;;5000417;28;19969;-60
2022/07/18 13:54:25;;;;;;;;;;;;;;;;;;4994136;28;19971;-60
2022/07/18 13:56:51;;;;;;;;;;;;;;;;;;4992517;28;19929;-60
2022/07/18 13:59:17;;;;;;;;;;;;;;;;;;4990155;28;19929;-60
2022/07/18 14:01:43;;;;;;;;;;;;;;;;;;4994569;28;19926;-61
2022/07/18 14:04:09;;;;;;;;;;;;;;;;;;4987306;28;20041;-61
2022/07/18 14:06:35;;;;;;;;;;;;;;;;;;4988236;28;20016;-60
2022/07/18 14:09:01;;;;;;;;;;;;;;;;;;4993686;28;20288;-60
2022/07/18 14:11:27;;;;;;;;;;;;;;;;;;4990026;28;19922;-60
2022/07/18 14:13:53;;;;;;;;;;;;;;;;;;4991738;28;19922;-60
2022/07/18 14:16:19;;;;;;;;;;;;;;;;;;4991455;28;19929;-60
2022/07/18 14:18:45;;;;;;;;;;;;;;;;;;4990448;28;19940;-60
2022/07/18 14:21:11;;;;;;;;;;;;;;;;;;4989090;28;20690;-61
2022/07/18 14:23:37;;;;;;;;;;;;;;;;;;4986220;28;19988;-60
2022/07/18 14:26:03;;;;;;;;;;;;;;;;;;4989856;28;19921;-60
2022/07/18 14:28:29;;;;;;;;;;;;;;;;;;4995329;28;19925;-60
2022/07/18 14:30:55;;;;;;;;;;;;;;;;;;4968517;28;20655;-60
2022/07/18 14:33:21;;;;;;;;;;;;;;;;;;4996376;28;19961;-60
2022/07/18 14:35:47;;;;;;;;;;;;;;;;;;4968876;28;19922;-61
2022/07/18 14:38:13;;;;;;;;;;;;;;;;;;4989788;28;19971;-61
2022/07/18 14:40:39;;;;;;;;;;;;;;;;;;4990306;28;19988;-61
2022/07/18 14:43:05;;;;;;;;;;;;;;;;;;4997037;28;20353;-60
2022/07/18 14:45:31;;;;;;;;;;;;;;;;;;4987821;28;19929;-61
2022/07/18 14:47:57;;;;;;;;;;;;;;;;;;4995432;28;19968;-60
2022/07/18 14:50:23;;;;;;;;;;;;;;;;;;4991889;28;20032;-61
2022/07/18 14:52:49;;;;;;;;;;;;;;;;;;4994782;28;20285;-61
2022/07/18 14:55:15;;;;;;;;;;;;;;;;;;4997633;28;19921;-60
2022/07/18 14:57:41;;;;;;;;;;;;;;;;;;4987138;28;19918;-61
2022/07/18 15:00:08;;;;;;;;;;;;;;;;;;4992295;28;19936;-61
2022/07/18 15:02:35;;;;;;;;;;;;;;;;;;4992890;28;19940;-61
2022/07/18 15:05:01;;;;;;;;;;;;;;;;;;4995865;28;19932;-62
2022/07/18 15:07:27;;;;;;;;;;;;;;;;;;4992039;28;19921;-62
2022/07/18 15:09:53;;;;;;;;;;;;;;;;;;4989899;28;19921;-62
2022/07/18 15:12:19;;;;;;;;;;;;;;;;;;4988873;28;19949;-62
2022/07/18 15:14:45;;;;;;;;;;;;;;;;;;4991686;28;19918;-62
2022/07/18 15:17:10;;;;;;;;;;;;;;;;;;4978938;28;19956;-61
2022/07/18 15:19:38;;;;;;;;;;;;;;;;;;4986790;28;20306;-59
2022/07/18 15:22:05;;;;;;;;;;;;;;;;;;4994220;28;20367;-61
2022/07/18 15:24:31;;;;;;;;;;;;;;;;;;4989069;28;19953;-62
2022/07/18 15:26:57;;;;;;;;;;;;;;;;;;4990289;28;19935;-62
2022/07/18 15:29:23;;;;;;;;;;;;;;;;;;4991721;28;19921;-62
2022/07/18 15:31:49;;;;;;;;;;;;;;;;;;4990206;28;19922;-61
2022/07/18 15:34:15;;;;;;;;;;;;;;;;;;4988541;28;19988;-61
2022/07/18 15:36:41;;;;;;;;;;;;;;;;;;4986072;28;19926;-62
2022/07/18 15:39:07;;;;;;;;;;;;;;;;;;4991104;28;19969;-61
2022/07/18 15:41:33;;;;;;;;;;;;;;;;;;4987989;28;20018;-61
2022/07/18 15:43:59;;;;;;;;;;;;;;;;;;4990796;28;19940;-61
2022/07/18 15:46:25;;;;;;;;;;;;;;;;;;4973196;28;20005;-61
2022/07/18 15:48:51;;;;;;;;;;;;;;;;;;4988198;28;19925;-61
2022/07/18 15:51:17;;;;;;;;;;;;;;;;;;4986288;28;19972;-61
2022/07/18 15:53:43;;;;;;;;;;;;;;;;;;4990075;28;19937;-61
2022/07/18 15:56:09;;;;;;;;;;;;;;;;;;4987562;28;19930;-61
2022/07/18 15:58:35;;;;;;;;;;;;;;;;;;4984510;28;19922;-61
2022/07/18 16:01:01;;;;;;;;;;;;;;;;;;4990353;28;20136;-61
2022/07/18 16:03:27;;;;;;;;;;;;;;;;;;4991265;28;19936;-58
2022/07/18 16:05:56;;;;;;;;;;;;;;;;;;4990100;28;19921;-58
2022/07/18 16:08:22;;;;;;;;;;;;;;;;;;4973267;28;19968;-59
2022/07/18 16:10:48;;;;;;;;;;;;;;;;;;4991379;28;19928;-58
2022/07/18 16:13:14;;;;;;;;;;;;;;;;;;4991539;28;19930;-59
2022/07/18 16:15:42;;;;;;;;;;;;;;;;;;4990231;28;19913;-58
2022/07/18 16:18:08;;;;;;;;;;;;;;;;;;4994815;28;20394;-58
2022/07/18 16:20:34;;;;;;;;;;;;;;;;;;4992017;28;19921;-58
2022/07/18 16:23:00;;;;;;;;;;;;;;;;;;4991375;28;19922;-58
2022/07/18 16:25:26;;;;;;;;;;;;;;;;;;4999779;28;19925;-59
2022/07/18 16:27:52;;;;;;;;;;;;;;;;;;5002483;28;19914;-58
2022/07/18 16:30:18;;;;;;;;;;;;;;;;;;4994974;28;19921;-59
2022/07/18 16:32:44;;;;;;;;;;;;;;;;;;4995256;28;20283;-59
2022/07/18 16:35:10;;;;;;;;;;;;;;;;;;4998661;28;19981;-58
2022/07/18 16:37:36;;;;;;;;;;;;;;;;;;4995361;28;20020;-58